»·PEaware :: N83AM KGPI-KOLM

N83AM :: KGPI-KOLM

FLIGHT INFORMATION

Flight Status: Arrived
Operator: Privately registered:
United States
More flights under this callsign
Pilot: Andrew M. (18915)
Aircraft: PILATUS PC-12 EAGLE
(PC12)
More flights by this aircraft type
Origin: KGPI Glacier Park Intl
United States
Destination: KOLM Olympia
United States
More flights between these airports :: More routes between these airports
Route: SKOTT2 SKOTT ELN V187 OLM
File this flight plan on PilotEdge
Remarks: none
Altitude:
(Current/Filed)
20,000ft
Speed:
(Current/Filed)
240kts
Departed: 02-Jun-18 11:20 AM
Arrived: 02-Jun-18 01:12 PM
Distance/Time
Traveled:
358nm/1:52
Distance/Time
To Go:
Arrived

Flight Plot

Page will automatically refresh every two minutes.

Flight plan parsing failed; only flown route is shown


Map Options




Map Legend


Flown Route
Filed Route
Departure Airport
Arrival Airport
Navaid (VOR, NDB)
Fix

Horizontal Profiles

Position Reports

Time Latitude Longitude Heading Altitude Ground
Speed
02-Jun-18 11:03 48.314899 -114.247467 126 2973ft 0kts
02-Jun-18 11:04 48.314899 -114.247467 126 2973ft 0kts
02-Jun-18 11:05 48.314899 -114.247467 126 2973ft 0kts
02-Jun-18 11:06 48.314899 -114.247467 126 2973ft 0kts
02-Jun-18 11:07 48.314899 -114.247467 126 2973ft 0kts
02-Jun-18 11:08 48.314899 -114.247467 126 2973ft 0kts
02-Jun-18 11:09 48.314899 -114.247467 126 2973ft 0kts
02-Jun-18 11:10 48.314899 -114.247467 126 2973ft 0kts
02-Jun-18 11:11 48.314899 -114.247467 126 2973ft 0kts
02-Jun-18 11:12 48.314899 -114.247467 126 2973ft 0kts
02-Jun-18 11:13 48.314899 -114.247467 126 2973ft 0kts
02-Jun-18 11:14 48.314899 -114.247467 126 2973ft 0kts
02-Jun-18 11:15 48.314899 -114.247467 126 2973ft 0kts
02-Jun-18 11:16 48.315202 -114.246826 8 2973ft 1kts
02-Jun-18 11:17 48.315719 -114.247947 32 2973ft 17kts
02-Jun-18 11:18 48.318398 -114.245560 337 2973ft 0kts
02-Jun-18 11:19 48.318398 -114.245560 337 2973ft 0kts
02-Jun-18 11:20 48.309822 -114.256186 208 3247ft 99kts
02-Jun-18 11:21 48.292223 -114.219095 137 4973ft 146kts
02-Jun-18 11:22 48.260968 -114.173418 169 6689ft 173kts
02-Jun-18 11:23 48.215540 -114.162665 181 8891ft 165kts
02-Jun-18 11:24 48.169738 -114.156849 184 10936ft 167kts
02-Jun-18 11:25 48.120355 -114.152987 184 12516ft 190kts
02-Jun-18 11:26 48.066265 -114.148568 185 14014ft 199kts
02-Jun-18 11:27 48.011327 -114.146549 187 15507ft 199kts
02-Jun-18 11:28 47.956176 -114.143520 187 17002ft 199kts
02-Jun-18 11:29 47.901056 -114.138978 187 18495ft 199kts
02-Jun-18 11:30 47.846544 -114.133877 189 19897ft 201kts
02-Jun-18 11:31 47.787226 -114.130532 195 20338ft 232kts
02-Jun-18 11:32 47.723484 -114.150426 234 20334ft 223kts
02-Jun-18 11:33 47.707921 -114.234836 264 20336ft 216kts
02-Jun-18 11:34 47.699898 -114.323954 265 20335ft 223kts
02-Jun-18 11:35 47.692234 -114.416109 265 20326ft 227kts
02-Jun-18 11:36 47.684422 -114.509314 265 20325ft 229kts
02-Jun-18 11:37 47.676488 -114.603317 265 20325ft 229kts
02-Jun-18 11:38 47.668521 -114.696759 264 20334ft 230kts
02-Jun-18 11:39 47.660451 -114.790574 264 20334ft 231kts
02-Jun-18 11:40 47.652252 -114.885050 264 20332ft 231kts
02-Jun-18 11:41 47.643978 -114.979468 264 20329ft 231kts
02-Jun-18 11:42 47.635678 -115.073761 263 20328ft 231kts
02-Jun-18 11:43 47.627187 -115.168728 262 20328ft 233kts
02-Jun-18 11:44 47.618554 -115.263904 262 20325ft 234kts
02-Jun-18 11:45 47.609920 -115.358448 262 20321ft 234kts
02-Jun-18 11:46 47.601106 -115.454264 262 20317ft 234kts
02-Jun-18 11:47 47.592256 -115.549558 262 20318ft 234kts
02-Jun-18 11:48 47.583295 -115.645178 262 20320ft 234kts
02-Jun-18 11:49 47.574368 -115.739541 262 20327ft 235kts
02-Jun-18 11:50 47.565246 -115.835170 262 20327ft 235kts
02-Jun-18 11:51 47.556002 -115.931176 262 20327ft 235kts
02-Jun-18 11:52 47.546711 -116.026802 262 20327ft 235kts
02-Jun-18 11:53 47.537331 -116.122478 262 20328ft 235kts
02-Jun-18 11:54 47.527874 -116.218106 262 20327ft 235kts
02-Jun-18 11:55 47.518339 -116.313676 262 20327ft 235kts
02-Jun-18 11:56 47.508728 -116.409180 262 20326ft 235kts
02-Jun-18 11:57 47.499044 -116.504586 262 20325ft 234kts
02-Jun-18 11:58 47.489298 -116.599793 262 20325ft 234kts
02-Jun-18 11:59 47.479494 -116.694672 261 20331ft 235kts
02-Jun-18 12:00 47.469537 -116.790419 261 20330ft 235kts
02-Jun-18 12:01 47.459529 -116.885775 261 20329ft 235kts
02-Jun-18 12:02 47.449416 -116.981497 261 20325ft 235kts
02-Jun-18 12:03 47.439240 -117.076877 261 20321ft 235kts
02-Jun-18 12:04 47.430685 -117.156386 260 20318ft 235kts
02-Jun-18 12:05 47.420330 -117.251885 260 20315ft 235kts
02-Jun-18 12:06 47.409918 -117.347249 260 20312ft 235kts
02-Jun-18 12:07 47.399448 -117.442377 260 20309ft 235kts
02-Jun-18 12:08 47.388895 -117.537475 260 20307ft 235kts
02-Jun-18 12:09 47.378284 -117.632423 260 20306ft 234kts
02-Jun-18 12:10 47.367623 -117.727008 260 20312ft 235kts
02-Jun-18 12:11 47.356826 -117.822150 260 20311ft 235kts
02-Jun-18 12:12 47.345982 -117.916937 260 20311ft 235kts
02-Jun-18 12:13 47.335045 -118.011810 260 20310ft 235kts
02-Jun-18 12:14 47.323994 -118.106946 260 20309ft 235kts
02-Jun-18 12:15 47.312865 -118.202048 260 20309ft 235kts
02-Jun-18 12:16 47.301711 -118.296646 260 20308ft 235kts
02-Jun-18 12:17 47.290438 -118.391548 260 20305ft 235kts
02-Jun-18 12:18 47.279088 -118.486416 260 20301ft 235kts
02-Jun-18 12:19 47.267663 -118.581190 260 20297ft 234kts
02-Jun-18 12:20 47.256610 -118.672157 259 20302ft 234kts
02-Jun-18 12:21 47.245045 -118.766825 259 20302ft 235kts
02-Jun-18 12:22 47.233389 -118.861561 259 20302ft 235kts
02-Jun-18 12:23 47.221690 -118.955918 259 20301ft 234kts
02-Jun-18 12:24 47.210088 -119.048827 259 20300ft 234kts
02-Jun-18 12:25 47.198275 -119.142734 259 20300ft 233kts
02-Jun-18 12:26 47.186423 -119.236313 259 20299ft 233kts
02-Jun-18 12:27 47.174513 -119.329743 259 20297ft 233kts
02-Jun-18 12:28 47.162512 -119.423223 259 20294ft 233kts
02-Jun-18 12:29 47.150420 -119.516771 259 20291ft 233kts
02-Jun-18 12:30 47.138257 -119.610282 259 20290ft 233kts
02-Jun-18 12:31 47.126145 -119.702687 258 20295ft 233kts
02-Jun-18 12:32 47.114074 -119.794332 258 20293ft 234kts
02-Jun-18 12:33 47.101615 -119.888216 258 20292ft 234kts
02-Jun-18 12:34 47.089281 -119.980554 258 20292ft 233kts
02-Jun-18 12:35 47.076797 -120.073604 258 20275ft 234kts
02-Jun-18 12:36 47.064244 -120.166211 258 20277ft 234kts
02-Jun-18 12:37 47.051511 -120.259713 258 20280ft 234kts
02-Jun-18 12:38 47.038678 -120.353351 258 20280ft 234kts
02-Jun-18 12:39 47.025830 -120.446555 258 20279ft 234kts
02-Jun-18 12:40 47.029901 -120.541981 273 20279ft 236kts
02-Jun-18 12:41 47.036562 -120.637289 273 20278ft 235kts
02-Jun-18 12:42 47.043018 -120.732109 272 20284ft 236kts
02-Jun-18 12:43 47.049437 -120.827494 272 20283ft 236kts
02-Jun-18 12:44 47.055820 -120.923549 272 20283ft 236kts
02-Jun-18 12:45 47.062105 -121.019064 272 20282ft 236kts
02-Jun-18 12:46 47.068329 -121.115096 271 20281ft 237kts
02-Jun-18 12:47 47.074491 -121.211687 271 20280ft 238kts
02-Jun-18 12:48 47.080561 -121.308748 271 20283ft 239kts
02-Jun-18 12:49 47.086572 -121.405577 271 20286ft 238kts
02-Jun-18 12:50 47.092494 -121.502317 271 20287ft 238kts
02-Jun-18 12:51 47.098355 -121.599304 271 20287ft 238kts
02-Jun-18 12:52 47.103994 -121.694273 270 20292ft 238kts
02-Jun-18 12:53 47.109691 -121.791180 270 20292ft 239kts
02-Jun-18 12:54 47.115161 -121.885722 270 20291ft 239kts
02-Jun-18 12:55 47.120697 -121.982792 270 20291ft 239kts
02-Jun-18 12:56 47.126124 -122.079252 270 20289ft 236kts
02-Jun-18 12:57 47.131366 -122.170764 270 19604ft 205kts
02-Jun-18 12:58 47.135552 -122.246868 270 18270ft 175kts
02-Jun-18 12:59 47.139711 -122.329764 271 17065ft 229kts
02-Jun-18 13:00 47.144952 -122.424016 271 15882ft 212kts
02-Jun-18 13:01 47.149429 -122.505020 271 13868ft 200kts
02-Jun-18 13:02 47.154134 -122.586245 271 11548ft 200kts
02-Jun-18 13:03 47.158008 -122.667440 270 9038ft 207kts
02-Jun-18 13:04 47.141939 -122.741962 204 6258ft 223kts
02-Jun-18 13:05 47.105505 -122.808087 248 3481ft 221kts
02-Jun-18 13:06 47.128274 -122.871599 5 3186ft 237kts
02-Jun-18 13:07 47.171160 -122.816488 106 3181ft 241kts
02-Jun-18 13:08 47.112464 -122.792150 184 3183ft 241kts
02-Jun-18 13:09 47.058127 -122.822957 237 2955ft 185kts
02-Jun-18 13:10 47.027465 -122.878023 230 2576ft 168kts
02-Jun-18 13:11 46.991602 -122.897365 197 1083ft 129kts
02-Jun-18 13:12 46.967788 -122.904859 186 201ft 20kts
02-Jun-18 13:13 46.967263 -122.903656 84 201ft 1kts
02-Jun-18 13:14 46.969505 -122.900401 9 201ft 3kts
02-Jun-18 13:15 46.972871 -122.896553 323 201ft 14kts
02-Jun-18 13:16 46.975703 -122.898494 5 196ft 10kts
02-Jun-18 13:17 46.975947 -122.898633 307 195ft 0kts
02-Jun-18 13:18 46.975947 -122.898633 307 195ft 0kts

Navigation Log

Ident Type
Flight plan parsing failed, navigation log unavailable